sensor_id;sensor_type;location;lat;lon;timestamp;P1;durP1;ratioP1;P2;durP2;ratioP2
31728;SDS011;18309;43.658;1.312;2024-02-26T00:01:23;32.83;;;4.20;;
31728;SDS011;18309;43.658;1.312;2024-02-26T00:03:49;31.67;;;4.97;;
31728;SDS011;18309;43.658;1.312;2024-02-26T00:06:15;27.20;;;4.43;;
31728;SDS011;18309;43.658;1.312;2024-02-26T00:08:41;25.55;;;3.80;;
31728;SDS011;18309;43.658;1.312;2024-02-26T00:11:06;31.48;;;3.90;;
31728;SDS011;18309;43.658;1.312;2024-02-26T00:13:32;28.38;;;4.35;;
31728;SDS011;18309;43.658;1.312;2024-02-26T00:15:58;29.83;;;4.07;;
31728;SDS011;18309;43.658;1.312;2024-02-26T00:18:23;27.45;;;4.18;;
31728;SDS011;18309;43.658;1.312;2024-02-26T00:20:49;24.50;;;4.55;;
31728;SDS011;18309;43.658;1.312;2024-02-26T00:23:15;19.00;;;4.55;;
31728;SDS011;18309;43.658;1.312;2024-02-26T00:25:41;24.02;;;4.47;;
31728;SDS011;18309;43.658;1.312;2024-02-26T00:28:08;24.60;;;4.65;;
31728;SDS011;18309;43.658;1.312;2024-02-26T00:30:35;22.02;;;4.22;;
31728;SDS011;18309;43.658;1.312;2024-02-26T00:33:00;25.85;;;4.82;;
31728;SDS011;18309;43.658;1.312;2024-02-26T00:35:26;31.83;;;4.95;;
31728;SDS011;18309;43.658;1.312;2024-02-26T00:37:52;15.02;;;4.30;;
31728;SDS011;18309;43.658;1.312;2024-02-26T00:40:18;30.10;;;4.40;;
31728;SDS011;18309;43.658;1.312;2024-02-26T00:42:44;26.35;;;4.22;;
31728;SDS011;18309;43.658;1.312;2024-02-26T00:45:14;20.48;;;4.45;;
31728;SDS011;18309;43.658;1.312;2024-02-26T00:47:41;26.92;;;5.05;;
31728;SDS011;18309;43.658;1.312;2024-02-26T00:50:07;22.33;;;4.60;;
31728;SDS011;18309;43.658;1.312;2024-02-26T00:52:34;26.55;;;4.25;;
31728;SDS011;18309;43.658;1.312;2024-02-26T00:55:00;22.25;;;4.57;;
31728;SDS011;18309;43.658;1.312;2024-02-26T00:57:26;31.15;;;4.22;;
31728;SDS011;18309;43.658;1.312;2024-02-26T00:59:52;20.17;;;3.72;;
31728;SDS011;18309;43.658;1.312;2024-02-26T01:02:17;25.00;;;4.53;;
31728;SDS011;18309;43.658;1.312;2024-02-26T01:04:43;14.40;;;3.95;;
31728;SDS011;18309;43.658;1.312;2024-02-26T01:07:09;24.67;;;4.07;;
31728;SDS011;18309;43.658;1.312;2024-02-26T01:09:35;27.75;;;4.68;;
31728;SDS011;18309;43.658;1.312;2024-02-26T01:12:00;19.90;;;3.55;;
31728;SDS011;18309;43.658;1.312;2024-02-26T01:14:27;20.55;;;4.55;;
31728;SDS011;18309;43.658;1.312;2024-02-26T01:16:53;26.75;;;4.75;;
31728;SDS011;18309;43.658;1.312;2024-02-26T01:19:19;23.52;;;5.07;;
31728;SDS011;18309;43.658;1.312;2024-02-26T01:21:45;22.88;;;4.55;;
31728;SDS011;18309;43.658;1.312;2024-02-26T01:24:10;25.33;;;4.00;;
31728;SDS011;18309;43.658;1.312;2024-02-26T01:26:36;27.40;;;4.18;;
31728;SDS011;18309;43.658;1.312;2024-02-26T01:29:01;24.65;;;4.95;;
31728;SDS011;18309;43.658;1.312;2024-02-26T01:31:27;21.90;;;4.60;;
31728;SDS011;18309;43.658;1.312;2024-02-26T01:33:53;18.45;;;4.18;;
31728;SDS011;18309;43.658;1.312;2024-02-26T01:36:19;22.40;;;4.38;;
31728;SDS011;18309;43.658;1.312;2024-02-26T01:38:45;20.33;;;4.88;;
31728;SDS011;18309;43.658;1.312;2024-02-26T01:41:10;22.58;;;3.85;;
31728;SDS011;18309;43.658;1.312;2024-02-26T01:43:36;29.85;;;5.63;;
31728;SDS011;18309;43.658;1.312;2024-02-26T01:46:03;26.13;;;3.88;;
31728;SDS011;18309;43.658;1.312;2024-02-26T01:48:29;19.20;;;3.97;;
31728;SDS011;18309;43.658;1.312;2024-02-26T01:50:55;22.88;;;4.68;;
31728;SDS011;18309;43.658;1.312;2024-02-26T01:53:21;26.33;;;4.55;;
31728;SDS011;18309;43.658;1.312;2024-02-26T01:55:47;19.15;;;3.42;;
31728;SDS011;18309;43.658;1.312;2024-02-26T01:58:13;20.25;;;3.53;;
31728;SDS011;18309;43.658;1.312;2024-02-26T02:00:39;20.05;;;3.88;;
31728;SDS011;18309;43.658;1.312;2024-02-26T02:03:05;23.85;;;4.65;;
31728;SDS011;18309;43.658;1.312;2024-02-26T02:05:31;15.93;;;3.28;;
31728;SDS011;18309;43.658;1.312;2024-02-26T02:07:58;15.05;;;4.10;;
31728;SDS011;18309;43.658;1.312;2024-02-26T02:10:24;18.38;;;3.88;;
31728;SDS011;18309;43.658;1.312;2024-02-26T02:12:53;19.65;;;3.28;;
31728;SDS011;18309;43.658;1.312;2024-02-26T02:15:19;22.30;;;4.38;;
31728;SDS011;18309;43.658;1.312;2024-02-26T02:17:45;32.78;;;4.93;;
31728;SDS011;18309;43.658;1.312;2024-02-26T02:20:17;29.75;;;4.13;;
31728;SDS011;18309;43.658;1.312;2024-02-26T02:22:46;23.65;;;4.05;;
31728;SDS011;18309;43.658;1.312;2024-02-26T02:25:12;25.83;;;3.97;;
31728;SDS011;18309;43.658;1.312;2024-02-26T02:27:39;30.35;;;4.38;;
31728;SDS011;18309;43.658;1.312;2024-02-26T02:30:05;26.17;;;4.32;;
31728;SDS011;18309;43.658;1.312;2024-02-26T02:32:34;26.48;;;3.20;;
31728;SDS011;18309;43.658;1.312;2024-02-26T02:35:02;27.67;;;3.97;;
31728;SDS011;18309;43.658;1.312;2024-02-26T02:37:28;34.47;;;4.18;;
31728;SDS011;18309;43.658;1.312;2024-02-26T02:39:54;22.77;;;3.42;;
31728;SDS011;18309;43.658;1.312;2024-02-26T02:42:20;26.33;;;4.05;;
31728;SDS011;18309;43.658;1.312;2024-02-26T02:44:45;21.38;;;3.22;;
31728;SDS011;18309;43.658;1.312;2024-02-26T02:47:11;26.88;;;3.65;;
31728;SDS011;18309;43.658;1.312;2024-02-26T02:49:37;22.17;;;3.15;;
31728;SDS011;18309;43.658;1.312;2024-02-26T02:52:02;23.27;;;3.15;;
31728;SDS011;18309;43.658;1.312;2024-02-26T02:54:28;19.42;;;3.38;;
31728;SDS011;18309;43.658;1.312;2024-02-26T02:56:54;22.00;;;3.00;;
31728;SDS011;18309;43.658;1.312;2024-02-26T02:59:20;27.92;;;3.08;;
31728;SDS011;18309;43.658;1.312;2024-02-26T03:01:45;29.33;;;3.97;;
31728;SDS011;18309;43.658;1.312;2024-02-26T03:04:11;31.92;;;3.42;;
31728;SDS011;18309;43.658;1.312;2024-02-26T03:06:37;22.45;;;3.00;;
31728;SDS011;18309;43.658;1.312;2024-02-26T03:09:03;21.85;;;3.50;;
31728;SDS011;18309;43.658;1.312;2024-02-26T03:11:29;13.85;;;2.72;;
31728;SDS011;18309;43.658;1.312;2024-02-26T03:13:54;25.52;;;3.65;;
31728;SDS011;18309;43.658;1.312;2024-02-26T03:16:20;21.63;;;2.53;;
31728;SDS011;18309;43.658;1.312;2024-02-26T03:18:46;24.05;;;2.95;;
31728;SDS011;18309;43.658;1.312;2024-02-26T03:21:11;23.25;;;2.88;;
31728;SDS011;18309;43.658;1.312;2024-02-26T03:23:37;20.13;;;2.50;;
31728;SDS011;18309;43.658;1.312;2024-02-26T03:26:06;11.55;;;2.33;;
31728;SDS011;18309;43.658;1.312;2024-02-26T03:28:31;23.30;;;2.92;;
31728;SDS011;18309;43.658;1.312;2024-02-26T03:30:58;19.65;;;2.60;;
31728;SDS011;18309;43.658;1.312;2024-02-26T03:33:24;17.20;;;2.55;;
31728;SDS011;18309;43.658;1.312;2024-02-26T03:35:50;15.95;;;1.98;;
31728;SDS011;18309;43.658;1.312;2024-02-26T03:38:16;17.45;;;2.10;;
31728;SDS011;18309;43.658;1.312;2024-02-26T03:40:41;18.65;;;2.55;;
31728;SDS011;18309;43.658;1.312;2024-02-26T03:43:07;19.40;;;3.10;;
31728;SDS011;18309;43.658;1.312;2024-02-26T03:45:33;19.80;;;2.63;;
31728;SDS011;18309;43.658;1.312;2024-02-26T03:47:59;30.30;;;3.38;;
31728;SDS011;18309;43.658;1.312;2024-02-26T03:50:24;19.75;;;2.40;;
31728;SDS011;18309;43.658;1.312;2024-02-26T03:52:50;21.17;;;1.92;;
31728;SDS011;18309;43.658;1.312;2024-02-26T03:55:16;19.58;;;2.20;;
31728;SDS011;18309;43.658;1.312;2024-02-26T03:57:46;10.85;;;1.58;;
31728;SDS011;18309;43.658;1.312;2024-02-26T04:00:12;15.77;;;2.50;;
31728;SDS011;18309;43.658;1.312;2024-02-26T04:02:38;18.13;;;1.80;;
31728;SDS011;18309;43.658;1.312;2024-02-26T04:05:04;21.58;;;2.35;;
31728;SDS011;18309;43.658;1.312;2024-02-26T04:07:30;12.10;;;2.10;;
31728;SDS011;18309;43.658;1.312;2024-02-26T04:09:55;18.38;;;2.08;;
31728;SDS011;18309;43.658;1.312;2024-02-26T04:12:21;14.05;;;2.00;;
31728;SDS011;18309;43.658;1.312;2024-02-26T04:14:47;18.30;;;1.58;;
31728;SDS011;18309;43.658;1.312;2024-02-26T04:17:12;17.65;;;2.08;;
31728;SDS011;18309;43.658;1.312;2024-02-26T04:19:38;17.65;;;1.58;;
31728;SDS011;18309;43.658;1.312;2024-02-26T04:22:03;20.02;;;2.85;;
31728;SDS011;18309;43.658;1.312;2024-02-26T04:24:30;17.55;;;2.33;;
31728;SDS011;18309;43.658;1.312;2024-02-26T04:26:55;14.50;;;1.73;;
31728;SDS011;18309;43.658;1.312;2024-02-26T04:29:21;16.30;;;1.77;;
31728;SDS011;18309;43.658;1.312;2024-02-26T04:31:47;12.05;;;1.27;;
31728;SDS011;18309;43.658;1.312;2024-02-26T04:34:13;10.85;;;1.65;;
31728;SDS011;18309;43.658;1.312;2024-02-26T04:36:38;17.00;;;2.05;;
31728;SDS011;18309;43.658;1.312;2024-02-26T04:39:04;16.98;;;2.78;;
31728;SDS011;18309;43.658;1.312;2024-02-26T04:41:30;10.43;;;1.75;;
31728;SDS011;18309;43.658;1.312;2024-02-26T04:43:55;17.27;;;1.50;;
31728;SDS011;18309;43.658;1.312;2024-02-26T04:46:21;20.38;;;1.85;;
31728;SDS011;18309;43.658;1.312;2024-02-26T04:48:47;13.75;;;1.45;;
31728;SDS011;18309;43.658;1.312;2024-02-26T04:51:12;13.82;;;1.30;;
31728;SDS011;18309;43.658;1.312;2024-02-26T04:53:38;9.30;;;1.33;;
31728;SDS011;18309;43.658;1.312;2024-02-26T04:56:04;11.40;;;1.27;;
31728;SDS011;18309;43.658;1.312;2024-02-26T04:58:30;6.80;;;1.10;;
31728;SDS011;18309;43.658;1.312;2024-02-26T05:00:56;8.13;;;1.65;;
31728;SDS011;18309;43.658;1.312;2024-02-26T05:03:21;10.93;;;1.33;;
31728;SDS011;18309;43.658;1.312;2024-02-26T05:05:47;16.48;;;1.45;;
31728;SDS011;18309;43.658;1.312;2024-02-26T05:08:13;13.05;;;1.33;;
31728;SDS011;18309;43.658;1.312;2024-02-26T05:10:38;10.73;;;1.50;;
31728;SDS011;18309;43.658;1.312;2024-02-26T05:13:08;9.35;;;1.20;;
31728;SDS011;18309;43.658;1.312;2024-02-26T05:15:35;15.90;;;1.30;;
31728;SDS011;18309;43.658;1.312;2024-02-26T05:18:01;9.05;;;1.15;;
31728;SDS011;18309;43.658;1.312;2024-02-26T05:20:27;5.93;;;1.00;;
31728;SDS011;18309;43.658;1.312;2024-02-26T05:22:53;9.50;;;1.10;;
31728;SDS011;18309;43.658;1.312;2024-02-26T05:25:19;11.00;;;0.80;;
31728;SDS011;18309;43.658;1.312;2024-02-26T05:27:45;7.43;;;1.00;;
31728;SDS011;18309;43.658;1.312;2024-02-26T05:30:11;6.93;;;1.30;;
31728;SDS011;18309;43.658;1.312;2024-02-26T05:32:37;6.53;;;1.05;;
31728;SDS011;18309;43.658;1.312;2024-02-26T05:35:03;8.85;;;1.17;;
31728;SDS011;18309;43.658;1.312;2024-02-26T05:37:29;13.10;;;2.22;;
31728;SDS011;18309;43.658;1.312;2024-02-26T05:39:55;19.73;;;3.70;;
31728;SDS011;18309;43.658;1.312;2024-02-26T05:42:20;9.55;;;2.15;;
31728;SDS011;18309;43.658;1.312;2024-02-26T05:44:46;8.93;;;2.03;;
31728;SDS011;18309;43.658;1.312;2024-02-26T05:47:12;9.93;;;1.83;;
31728;SDS011;18309;43.658;1.312;2024-02-26T05:49:38;12.10;;;1.70;;
31728;SDS011;18309;43.658;1.312;2024-02-26T05:52:04;12.10;;;1.30;;
31728;SDS011;18309;43.658;1.312;2024-02-26T05:54:31;11.63;;;1.83;;
31728;SDS011;18309;43.658;1.312;2024-02-26T05:56:57;7.32;;;1.13;;
31728;SDS011;18309;43.658;1.312;2024-02-26T05:59:23;8.02;;;1.10;;
31728;SDS011;18309;43.658;1.312;2024-02-26T06:01:49;8.82;;;1.50;;
31728;SDS011;18309;43.658;1.312;2024-02-26T06:04:14;6.72;;;1.80;;
31728;SDS011;18309;43.658;1.312;2024-02-26T06:06:42;9.98;;;1.25;;
31728;SDS011;18309;43.658;1.312;2024-02-26T06:09:07;14.88;;;1.08;;
31728;SDS011;18309;43.658;1.312;2024-02-26T06:11:33;8.75;;;1.40;;
31728;SDS011;18309;43.658;1.312;2024-02-26T06:13:59;7.70;;;0.95;;
31728;SDS011;18309;43.658;1.312;2024-02-26T06:16:24;10.77;;;1.02;;
31728;SDS011;18309;43.658;1.312;2024-02-26T06:18:50;10.15;;;1.30;;
31728;SDS011;18309;43.658;1.312;2024-02-26T06:21:16;6.53;;;1.30;;
31728;SDS011;18309;43.658;1.312;2024-02-26T06:23:41;12.20;;;1.95;;
31728;SDS011;18309;43.658;1.312;2024-02-26T06:26:07;8.35;;;1.15;;
31728;SDS011;18309;43.658;1.312;2024-02-26T06:28:33;6.97;;;1.38;;
31728;SDS011;18309;43.658;1.312;2024-02-26T06:31:00;9.73;;;1.63;;
31728;SDS011;18309;43.658;1.312;2024-02-26T06:33:26;11.75;;;1.48;;
31728;SDS011;18309;43.658;1.312;2024-02-26T06:35:52;8.77;;;1.15;;
31728;SDS011;18309;43.658;1.312;2024-02-26T06:38:18;5.20;;;1.20;;
31728;SDS011;18309;43.658;1.312;2024-02-26T06:40:44;7.82;;;0.70;;
31728;SDS011;18309;43.658;1.312;2024-02-26T06:43:11;6.28;;;1.05;;
31728;SDS011;18309;43.658;1.312;2024-02-26T06:45:36;4.55;;;1.00;;
31728;SDS011;18309;43.658;1.312;2024-02-26T06:48:02;5.03;;;1.10;;
31728;SDS011;18309;43.658;1.312;2024-02-26T06:50:28;6.30;;;1.27;;
31728;SDS011;18309;43.658;1.312;2024-02-26T06:52:53;4.80;;;1.40;;
31728;SDS011;18309;43.658;1.312;2024-02-26T06:55:19;7.05;;;1.45;;
31728;SDS011;18309;43.658;1.312;2024-02-26T06:57:45;11.05;;;2.13;;
31728;SDS011;18309;43.658;1.312;2024-02-26T07:00:10;7.60;;;1.88;;
31728;SDS011;18309;43.658;1.312;2024-02-26T07:05:07;11.90;;;1.50;;
31728;SDS011;18309;43.658;1.312;2024-02-26T07:07:34;7.90;;;1.08;;
31728;SDS011;18309;43.658;1.312;2024-02-26T07:09:59;7.50;;;1.50;;
31728;SDS011;18309;43.658;1.312;2024-02-26T07:12:28;9.70;;;2.47;;
31728;SDS011;18309;43.658;1.312;2024-02-26T07:14:54;9.88;;;1.63;;
31728;SDS011;18309;43.658;1.312;2024-02-26T07:17:20;13.73;;;2.40;;
31728;SDS011;18309;43.658;1.312;2024-02-26T07:19:45;17.17;;;1.98;;
31728;SDS011;18309;43.658;1.312;2024-02-26T07:22:11;9.75;;;1.45;;
31728;SDS011;18309;43.658;1.312;2024-02-26T07:24:37;9.52;;;1.50;;
31728;SDS011;18309;43.658;1.312;2024-02-26T07:27:03;10.43;;;2.47;;
31728;SDS011;18309;43.658;1.312;2024-02-26T07:29:29;9.75;;;1.83;;
31728;SDS011;18309;43.658;1.312;2024-02-26T07:31:55;13.00;;;2.03;;
31728;SDS011;18309;43.658;1.312;2024-02-26T07:34:21;11.68;;;1.90;;
31728;SDS011;18309;43.658;1.312;2024-02-26T07:39:18;12.20;;;1.95;;
31728;SDS011;18309;43.658;1.312;2024-02-26T07:41:44;8.32;;;1.75;;
31728;SDS011;18309;43.658;1.312;2024-02-26T07:44:12;9.50;;;2.22;;
31728;SDS011;18309;43.658;1.312;2024-02-26T07:46:37;10.88;;;1.67;;
31728;SDS011;18309;43.658;1.312;2024-02-26T07:49:03;13.88;;;2.05;;
31728;SDS011;18309;43.658;1.312;2024-02-26T07:51:28;10.50;;;1.60;;
31728;SDS011;18309;43.658;1.312;2024-02-26T07:53:54;10.77;;;1.55;;
31728;SDS011;18309;43.658;1.312;2024-02-26T07:56:20;9.90;;;1.40;;
31728;SDS011;18309;43.658;1.312;2024-02-26T07:58:45;9.45;;;2.58;;
31728;SDS011;18309;43.658;1.312;2024-02-26T08:01:14;5.93;;;1.52;;
31728;SDS011;18309;43.658;1.312;2024-02-26T08:03:40;20.13;;;3.05;;
31728;SDS011;18309;43.658;1.312;2024-02-26T08:06:05;14.68;;;2.10;;
31728;SDS011;18309;43.658;1.312;2024-02-26T08:08:33;12.68;;;2.55;;
31728;SDS011;18309;43.658;1.312;2024-02-26T08:10:59;14.20;;;3.25;;
31728;SDS011;18309;43.658;1.312;2024-02-26T08:13:25;9.75;;;1.60;;
31728;SDS011;18309;43.658;1.312;2024-02-26T08:15:51;15.45;;;2.22;;
31728;SDS011;18309;43.658;1.312;2024-02-26T08:18:17;11.88;;;2.17;;
31728;SDS011;18309;43.658;1.312;2024-02-26T08:20:43;11.70;;;2.25;;
31728;SDS011;18309;43.658;1.312;2024-02-26T08:23:08;10.63;;;1.67;;
31728;SDS011;18309;43.658;1.312;2024-02-26T08:25:34;12.35;;;2.15;;
31728;SDS011;18309;43.658;1.312;2024-02-26T08:28:00;14.30;;;2.20;;
31728;SDS011;18309;43.658;1.312;2024-02-26T08:30:26;14.55;;;2.13;;
31728;SDS011;18309;43.658;1.312;2024-02-26T08:32:51;11.45;;;1.38;;
31728;SDS011;18309;43.658;1.312;2024-02-26T08:35:17;14.85;;;1.90;;
31728;SDS011;18309;43.658;1.312;2024-02-26T08:37:46;10.93;;;1.42;;
31728;SDS011;18309;43.658;1.312;2024-02-26T08:40:12;14.77;;;1.70;;
31728;SDS011;18309;43.658;1.312;2024-02-26T08:42:39;17.02;;;1.77;;
31728;SDS011;18309;43.658;1.312;2024-02-26T08:45:04;13.95;;;2.05;;
31728;SDS011;18309;43.658;1.312;2024-02-26T08:47:31;13.73;;;2.20;;
31728;SDS011;18309;43.658;1.312;2024-02-26T08:49:57;7.15;;;2.00;;
31728;SDS011;18309;43.658;1.312;2024-02-26T08:52:23;13.55;;;1.65;;
31728;SDS011;18309;43.658;1.312;2024-02-26T08:54:49;11.00;;;1.63;;
31728;SDS011;18309;43.658;1.312;2024-02-26T08:57:15;11.15;;;2.97;;
31728;SDS011;18309;43.658;1.312;2024-02-26T08:59:41;13.63;;;3.20;;
31728;SDS011;18309;43.658;1.312;2024-02-26T09:02:07;8.00;;;1.38;;
31728;SDS011;18309;43.658;1.312;2024-02-26T09:04:34;11.98;;;2.03;;
31728;SDS011;18309;43.658;1.312;2024-02-26T09:07:00;17.27;;;2.38;;
31728;SDS011;18309;43.658;1.312;2024-02-26T09:09:27;13.23;;;1.90;;
31728;SDS011;18309;43.658;1.312;2024-02-26T09:11:52;13.43;;;1.58;;
31728;SDS011;18309;43.658;1.312;2024-02-26T09:14:20;11.40;;;1.70;;
31728;SDS011;18309;43.658;1.312;2024-02-26T09:16:46;12.02;;;1.40;;
31728;SDS011;18309;43.658;1.312;2024-02-26T09:19:13;11.82;;;2.15;;
31728;SDS011;18309;43.658;1.312;2024-02-26T09:21:46;10.63;;;1.52;;
31728;SDS011;18309;43.658;1.312;2024-02-26T09:24:12;9.07;;;1.45;;
31728;SDS011;18309;43.658;1.312;2024-02-26T09:26:37;9.98;;;1.00;;
31728;SDS011;18309;43.658;1.312;2024-02-26T09:29:03;15.90;;;1.38;;
31728;SDS011;18309;43.658;1.312;2024-02-26T09:31:30;11.93;;;1.52;;
31728;SDS011;18309;43.658;1.312;2024-02-26T09:33:56;10.85;;;1.27;;
31728;SDS011;18309;43.658;1.312;2024-02-26T09:36:22;8.88;;;1.00;;
31728;SDS011;18309;43.658;1.312;2024-02-26T09:38:47;13.23;;;1.85;;
31728;SDS011;18309;43.658;1.312;2024-02-26T09:41:16;10.20;;;1.35;;
31728;SDS011;18309;43.658;1.312;2024-02-26T09:43:43;10.15;;;1.50;;
31728;SDS011;18309;43.658;1.312;2024-02-26T09:46:11;7.97;;;1.40;;
31728;SDS011;18309;43.658;1.312;2024-02-26T09:48:37;10.93;;;1.20;;
31728;SDS011;18309;43.658;1.312;2024-02-26T09:51:03;10.45;;;1.23;;
31728;SDS011;18309;43.658;1.312;2024-02-26T09:53:30;10.98;;;1.48;;
31728;SDS011;18309;43.658;1.312;2024-02-26T09:56:00;7.97;;;1.15;;
31728;SDS011;18309;43.658;1.312;2024-02-26T09:58:29;9.23;;;1.20;;
31728;SDS011;18309;43.658;1.312;2024-02-26T10:00:56;12.17;;;1.20;;
31728;SDS011;18309;43.658;1.312;2024-02-26T10:03:25;8.23;;;0.93;;
31728;SDS011;18309;43.658;1.312;2024-02-26T10:05:55;11.00;;;1.05;;
31728;SDS011;18309;43.658;1.312;2024-02-26T10:08:22;9.52;;;1.40;;
31728;SDS011;18309;43.658;1.312;2024-02-26T10:10:49;11.15;;;1.65;;
31728;SDS011;18309;43.658;1.312;2024-02-26T10:13:15;15.10;;;1.17;;
31728;SDS011;18309;43.658;1.312;2024-02-26T10:15:41;10.80;;;1.40;;
31728;SDS011;18309;43.658;1.312;2024-02-26T10:18:07;9.07;;;1.40;;
31728;SDS011;18309;43.658;1.312;2024-02-26T10:20:32;7.30;;;1.73;;
31728;SDS011;18309;43.658;1.312;2024-02-26T10:22:58;5.47;;;1.45;;
31728;SDS011;18309;43.658;1.312;2024-02-26T10:25:27;14.77;;;1.67;;
31728;SDS011;18309;43.658;1.312;2024-02-26T10:27:53;13.60;;;1.42;;
31728;SDS011;18309;43.658;1.312;2024-02-26T10:30:19;6.70;;;0.75;;
31728;SDS011;18309;43.658;1.312;2024-02-26T10:32:46;12.73;;;1.25;;
31728;SDS011;18309;43.658;1.312;2024-02-26T10:35:14;9.02;;;1.20;;
31728;SDS011;18309;43.658;1.312;2024-02-26T10:37:41;6.05;;;0.90;;
31728;SDS011;18309;43.658;1.312;2024-02-26T10:40:10;15.20;;;1.50;;
31728;SDS011;18309;43.658;1.312;2024-02-26T10:42:36;9.97;;;1.47;;
31728;SDS011;18309;43.658;1.312;2024-02-26T10:45:04;7.75;;;0.95;;
31728;SDS011;18309;43.658;1.312;2024-02-26T10:50:04;5.95;;;1.08;;
31728;SDS011;18309;43.658;1.312;2024-02-26T10:52:31;6.45;;;1.33;;
31728;SDS011;18309;43.658;1.312;2024-02-26T10:55:00;8.73;;;1.10;;
31728;SDS011;18309;43.658;1.312;2024-02-26T10:57:38;5.35;;;1.00;;
31728;SDS011;18309;43.658;1.312;2024-02-26T11:00:05;3.35;;;0.98;;
31728;SDS011;18309;43.658;1.312;2024-02-26T11:02:35;6.55;;;1.02;;
31728;SDS011;18309;43.658;1.312;2024-02-26T11:05:02;5.03;;;1.00;;
31728;SDS011;18309;43.658;1.312;2024-02-26T11:07:31;6.38;;;1.05;;
31728;SDS011;18309;43.658;1.312;2024-02-26T11:09:58;5.22;;;1.13;;
31728;SDS011;18309;43.658;1.312;2024-02-26T11:12:25;4.85;;;0.80;;
31728;SDS011;18309;43.658;1.312;2024-02-26T11:14:53;8.63;;;1.00;;
31728;SDS011;18309;43.658;1.312;2024-02-26T11:17:22;11.10;;;0.75;;
31728;SDS011;18309;43.658;1.312;2024-02-26T11:19:56;9.73;;;1.20;;
31728;SDS011;18309;43.658;1.312;2024-02-26T11:22:26;2.15;;;0.45;;
31728;SDS011;18309;43.658;1.312;2024-02-26T11:24:53;3.25;;;0.90;;
31728;SDS011;18309;43.658;1.312;2024-02-26T11:30:24;2.47;;;0.60;;
31728;SDS011;18309;43.658;1.312;2024-02-26T11:32:54;9.93;;;1.65;;
31728;SDS011;18309;43.658;1.312;2024-02-26T11:35:20;6.10;;;0.65;;
31728;SDS011;18309;43.658;1.312;2024-02-26T11:37:55;7.95;;;0.80;;
31728;SDS011;18309;43.658;1.312;2024-02-26T11:40:25;2.17;;;0.45;;
31728;SDS011;18309;43.658;1.312;2024-02-26T11:42:51;7.68;;;0.70;;
31728;SDS011;18309;43.658;1.312;2024-02-26T11:48:03;5.20;;;0.80;;
31728;SDS011;18309;43.658;1.312;2024-02-26T11:50:36;4.05;;;0.65;;
31728;SDS011;18309;43.658;1.312;2024-02-26T11:56:12;3.83;;;0.52;;
31728;SDS011;18309;43.658;1.312;2024-02-26T11:58:41;6.30;;;0.68;;
31728;SDS011;18309;43.658;1.312;2024-02-26T12:01:49;3.38;;;0.43;;
31728;SDS011;18309;43.658;1.312;2024-02-26T12:04:21;4.28;;;0.38;;
31728;SDS011;18309;43.658;1.312;2024-02-26T12:12:03;2.10;;;0.47;;
31728;SDS011;18309;43.658;1.312;2024-02-26T12:14:35;5.55;;;0.60;;
31728;SDS011;18309;43.658;1.312;2024-02-26T12:17:22;2.80;;;0.40;;
31728;SDS011;18309;43.658;1.312;2024-02-26T12:19:49;3.35;;;0.70;;
31728;SDS011;18309;43.658;1.312;2024-02-26T12:22:16;2.10;;;0.55;;
31728;SDS011;18309;43.658;1.312;2024-02-26T12:24:45;4.32;;;0.98;;
31728;SDS011;18309;43.658;1.312;2024-02-26T12:27:11;2.95;;;0.45;;
31728;SDS011;18309;43.658;1.312;2024-02-26T12:29:37;3.38;;;0.65;;
31728;SDS011;18309;43.658;1.312;2024-02-26T12:32:04;2.65;;;0.70;;
31728;SDS011;18309;43.658;1.312;2024-02-26T12:34:30;3.75;;;0.65;;
31728;SDS011;18309;43.658;1.312;2024-02-26T12:36:56;5.20;;;0.60;;
31728;SDS011;18309;43.658;1.312;2024-02-26T12:39:22;4.75;;;0.52;;
31728;SDS011;18309;43.658;1.312;2024-02-26T12:41:48;2.05;;;0.52;;
31728;SDS011;18309;43.658;1.312;2024-02-26T12:44:17;2.97;;;0.43;;
31728;SDS011;18309;43.658;1.312;2024-02-26T12:46:43;2.00;;;0.40;;
31728;SDS011;18309;43.658;1.312;2024-02-26T12:49:14;4.93;;;0.80;;
31728;SDS011;18309;43.658;1.312;2024-02-26T12:51:42;2.25;;;0.60;;
31728;SDS011;18309;43.658;1.312;2024-02-26T12:54:10;2.08;;;0.50;;
31728;SDS011;18309;43.658;1.312;2024-02-26T12:56:36;3.90;;;0.35;;
31728;SDS011;18309;43.658;1.312;2024-02-26T12:59:03;2.60;;;0.50;;
31728;SDS011;18309;43.658;1.312;2024-02-26T13:01:29;5.63;;;0.77;;
31728;SDS011;18309;43.658;1.312;2024-02-26T13:03:55;1.83;;;0.60;;
31728;SDS011;18309;43.658;1.312;2024-02-26T13:06:22;3.10;;;0.90;;
31728;SDS011;18309;43.658;1.312;2024-02-26T13:08:48;3.03;;;0.40;;
31728;SDS011;18309;43.658;1.312;2024-02-26T13:11:14;5.30;;;0.52;;
31728;SDS011;18309;43.658;1.312;2024-02-26T13:13:40;5.13;;;0.57;;
31728;SDS011;18309;43.658;1.312;2024-02-26T13:16:06;3.33;;;0.70;;
31728;SDS011;18309;43.658;1.312;2024-02-26T13:18:35;2.92;;;0.70;;
31728;SDS011;18309;43.658;1.312;2024-02-26T13:21:11;2.22;;;0.45;;
31728;SDS011;18309;43.658;1.312;2024-02-26T13:23:53;2.72;;;0.50;;
31728;SDS011;18309;43.658;1.312;2024-02-26T13:26:21;2.80;;;0.40;;
31728;SDS011;18309;43.658;1.312;2024-02-26T13:28:58;3.28;;;0.77;;
31728;SDS011;18309;43.658;1.312;2024-02-26T13:31:28;1.77;;;0.50;;
31728;SDS011;18309;43.658;1.312;2024-02-26T13:33:54;1.65;;;0.50;;
31728;SDS011;18309;43.658;1.312;2024-02-26T13:36:21;5.25;;;0.77;;
31728;SDS011;18309;43.658;1.312;2024-02-26T13:38:54;2.63;;;0.57;;
31728;SDS011;18309;43.658;1.312;2024-02-26T13:41:20;0.82;;;0.40;;
31728;SDS011;18309;43.658;1.312;2024-02-26T13:43:47;1.95;;;0.73;;
31728;SDS011;18309;43.658;1.312;2024-02-26T13:46:12;2.03;;;0.47;;
31728;SDS011;18309;43.658;1.312;2024-02-26T13:48:40;2.85;;;0.60;;
31728;SDS011;18309;43.658;1.312;2024-02-26T13:51:06;2.40;;;0.80;;
31728;SDS011;18309;43.658;1.312;2024-02-26T13:53:32;2.75;;;0.77;;
31728;SDS011;18309;43.658;1.312;2024-02-26T13:55:57;1.08;;;0.47;;
31728;SDS011;18309;43.658;1.312;2024-02-26T13:58:26;2.15;;;0.55;;
31728;SDS011;18309;43.658;1.312;2024-02-26T14:00:55;5.47;;;0.77;;
31728;SDS011;18309;43.658;1.312;2024-02-26T14:03:21;3.88;;;0.75;;
31728;SDS011;18309;43.658;1.312;2024-02-26T14:05:47;1.23;;;0.50;;
31728;SDS011;18309;43.658;1.312;2024-02-26T14:08:13;2.90;;;0.60;;
31728;SDS011;18309;43.658;1.312;2024-02-26T14:10:39;5.70;;;0.70;;
31728;SDS011;18309;43.658;1.312;2024-02-26T14:13:05;3.53;;;0.60;;
31728;SDS011;18309;43.658;1.312;2024-02-26T14:15:31;3.28;;;0.32;;
31728;SDS011;18309;43.658;1.312;2024-02-26T14:17:57;3.22;;;0.85;;
31728;SDS011;18309;43.658;1.312;2024-02-26T14:20:23;1.75;;;0.60;;
31728;SDS011;18309;43.658;1.312;2024-02-26T14:22:50;1.60;;;0.50;;
31728;SDS011;18309;43.658;1.312;2024-02-26T14:25:18;1.50;;;0.50;;
31728;SDS011;18309;43.658;1.312;2024-02-26T14:27:44;2.08;;;0.57;;
31728;SDS011;18309;43.658;1.312;2024-02-26T14:30:11;3.40;;;0.50;;
31728;SDS011;18309;43.658;1.312;2024-02-26T14:32:37;1.90;;;0.40;;
31728;SDS011;18309;43.658;1.312;2024-02-26T14:35:09;2.13;;;0.68;;
31728;SDS011;18309;43.658;1.312;2024-02-26T14:37:35;1.80;;;0.73;;
31728;SDS011;18309;43.658;1.312;2024-02-26T14:40:02;2.10;;;0.50;;
31728;SDS011;18309;43.658;1.312;2024-02-26T14:42:28;1.27;;;0.40;;
31728;SDS011;18309;43.658;1.312;2024-02-26T14:44:54;2.42;;;0.40;;
31728;SDS011;18309;43.658;1.312;2024-02-26T14:47:20;1.25;;;0.50;;
31728;SDS011;18309;43.658;1.312;2024-02-26T14:49:46;1.27;;;0.50;;
31728;SDS011;18309;43.658;1.312;2024-02-26T14:52:13;1.02;;;0.35;;
31728;SDS011;18309;43.658;1.312;2024-02-26T14:54:40;1.08;;;0.40;;
31728;SDS011;18309;43.658;1.312;2024-02-26T14:57:05;1.80;;;0.50;;
31728;SDS011;18309;43.658;1.312;2024-02-26T14:59:32;2.05;;;0.52;;